HTWT2: E Fk Little Wichita Rv nr Henrietta, TX

Data processed at Tue May 21 2019 23:50


All information presented herein is the property of the government of the United States of America and may be revised or deleted at any time without prior notice.
Dissemination of this information without the expressed written consent of the Public Affairs Office, Tulsa District U.S. Army Corps of Engineers is strictly prohibited.
These data are gathered electronically and, as presented, have not undergone any form of quality control. These data are not guaranteed to be valid or correct.
Go to home page.
Go to station list.
Go to home page.

Downstream station:


Previous Day
Next Day
Current Day
    
SHEF ID:       HTWT2     E Fk Little Wichita Rv nr Henrie
STATION TYPE:  

                STAGE  RIV-FLOW   VOLTAGE  BAT-LOAD
                   ft       cfs      volt      volt
              Ccp-Rev   Ccp-Rev   Ccp-Rev   Ccp-Rev
(US/Central)
05/21 00:00      7.12        38     12.98     11.42
05/21 01:00      7.07        36     12.96     11.42
05/21 02:00      7.03        35     12.95     11.42
05/21 03:00      7.00        34     12.97     11.42
05/21 04:00      7.05        36     12.93     11.42
05/21 05:00      7.16        39     12.88     11.42
05/21 06:00      7.40        47     12.88     11.37
05/21 07:00      7.66        56     12.90     11.37
05/21 08:00      7.88        64     12.91     11.37
05/21 09:00      8.72       102     13.01     11.37
05/21 10:00      9.54       150     13.35     11.48
05/21 11:00     10.00       181     13.60     11.77
05/21 12:00     10.20       196     14.64     12.01
05/21 13:00     10.36       208     14.62     12.36
05/21 14:00     10.54       221      ----      ----
05/21 15:00     10.77       240     14.53     12.36
05/21 16:00     11.00       259     14.46     12.42
05/21 17:00     11.25       281     14.41     12.42
05/21 18:00     11.50       303     14.35     12.36
05/21 19:00     11.67       319     13.54     12.30
05/21 20:00     11.80       332     13.15     11.95
05/21 21:00     11.94       345     12.99     11.60
05/21 22:00     12.06       357     12.94     11.48
05/21 23:00     12.18       369     12.95     11.42